Time;durP1;ratioP1;P1;durP2;ratioP2;P2;SDS_P1;SDS_P2;PMS_P1;PMS_P2;Temp;Humidity;BMP_temperature;BMP_pressure;BME280_temperature;BME280_humidity;BME280_pressure;Samples;Min_cycle;Max_cycle;Signal;HPM_P1;HPM_P2
2024/02/26 00:09:17;;;;;;;6.57;3.90;;;1.20;99.90;;;;;;20870461;28;20136;-41
2024/02/26 00:19:19;;;;;;;4.65;3.40;;;1.30;99.90;;;;;;20853169;28;20148;-41
2024/02/26 00:29:21;;;;;;;7.47;4.97;;;1.30;99.90;;;;;;20869549;28;20138;-42
2024/02/26 00:39:23;;;;;;;7.35;5.18;;;1.20;99.90;;;;;;20869979;28;20568;-41
2024/02/26 00:49:25;;;;;;;11.07;6.43;;;1.10;99.90;;;;;;20867808;28;20126;-41
2024/02/26 00:59:27;;;;;;;16.45;9.43;;;1.00;99.90;;;;;;20847155;28;20060;-41
2024/02/26 01:09:29;;;;;;;11.20;8.50;;;1.00;99.90;;;;;;20849984;28;20184;-42
2024/02/26 01:19:31;;;;;;;13.25;8.13;;;1.00;99.90;;;;;;20867321;28;20154;-42
2024/02/26 01:29:36;;;;;;;16.17;10.38;;;0.90;99.90;;;;;;20868290;28;20769;-42
2024/02/26 01:39:40;;;;;;;17.70;11.15;;;1.00;99.90;;;;;;20867001;28;20314;-42
2024/02/26 01:49:42;;;;;;;19.55;11.95;;;1.00;99.90;;;;;;20865606;28;20146;-44
2024/02/26 01:59:44;;;;;;;23.08;12.75;;;1.10;99.90;;;;;;20849860;28;21242;-42
2024/02/26 02:09:46;;;;;;;15.43;10.10;;;1.10;99.90;;;;;;20866361;28;20185;-42
2024/02/26 02:19:48;;;;;;;18.33;10.82;;;1.10;99.90;;;;;;20862077;28;20118;-43
2024/02/26 02:29:50;;;;;;;19.60;11.95;;;1.10;99.90;;;;;;20864852;28;20816;-43
2024/02/26 02:39:54;;;;;;;16.55;10.88;;;1.10;99.90;;;;;;20867293;28;20182;-42
2024/02/26 02:49:57;;;;;;;18.23;11.55;;;1.10;99.90;;;;;;20871324;28;20130;-42
2024/02/26 02:59:59;;;;;;;20.45;13.02;;;1.10;99.90;;;;;;20881072;28;20248;-42
2024/02/26 03:10:01;;;;;;;32.42;15.75;;;1.10;99.90;;;;;;20878158;28;20248;-43
2024/02/26 03:20:05;;;;;;;20.13;11.48;;;1.10;99.90;;;;;;20876572;28;20824;-42
2024/02/26 03:30:07;;;;;;;26.33;13.57;;;1.00;99.90;;;;;;20856421;28;20174;-44
2024/02/26 03:40:14;;;;;;;21.13;13.18;;;0.90;99.90;;;;;;20876108;28;20283;-43
2024/02/26 03:50:16;;;;;;;20.65;13.05;;;0.80;99.90;;;;;;20855664;28;20157;-43
2024/02/26 04:00:19;;;;;;;20.65;12.20;;;0.70;99.90;;;;;;20878216;28;20298;-44
2024/02/26 04:10:21;;;;;;;19.10;10.48;;;0.60;99.90;;;;;;20872676;28;20067;-42
2024/02/26 04:20:26;;;;;;;21.00;12.45;;;0.60;99.90;;;;;;20870424;28;20122;-42
2024/02/26 04:30:28;;;;;;;17.80;10.50;;;0.50;99.90;;;;;;20869731;28;21078;-43
2024/02/26 04:40:29;;;;;;;21.25;10.60;;;0.30;99.90;;;;;;20872488;28;20508;-42
2024/02/26 04:50:31;;;;;;;15.75;9.52;;;0.30;99.90;;;;;;20849683;28;20130;-41
2024/02/26 05:00:36;;;;;;;14.70;9.02;;;0.20;99.90;;;;;;20871904;28;20136;-42
2024/02/26 05:10:40;;;;;;;14.93;7.78;;;0.30;99.90;;;;;;20865641;28;20161;-40
2024/02/26 05:20:42;;;;;;;14.93;6.32;;;0.40;99.90;;;;;;20865016;28;20139;-43
2024/02/26 05:30:44;;;;;;;11.43;6.47;;;0.40;99.90;;;;;;20866628;28;20067;-41
2024/02/26 05:40:46;;;;;;;10.70;6.30;;;0.40;99.90;;;;;;20863741;28;20291;-40
2024/02/26 05:50:48;;;;;;;10.88;6.90;;;0.40;99.90;;;;;;20865661;28;20665;-41
2024/02/26 06:00:50;;;;;;;11.40;7.22;;;0.50;99.90;;;;;;20864158;28;20582;-40
2024/02/26 06:10:52;;;;;;;14.63;9.45;;;0.50;99.90;;;;;;20866213;28;20170;-41
2024/02/26 06:20:54;;;;;;;12.80;8.35;;;0.60;99.90;;;;;;20864449;28;20166;-43
2024/02/26 06:30:56;;;;;;;10.93;7.47;;;0.70;99.90;;;;;;20881729;28;20130;-41
2024/02/26 06:40:58;;;;;;;11.77;7.05;;;0.80;99.90;;;;;;20877713;28;20217;-41
2024/02/26 06:51:00;;;;;;;8.73;6.35;;;0.90;99.90;;;;;;20876026;28;21165;-42
2024/02/26 07:01:02;;;;;;;10.35;6.60;;;0.90;99.90;;;;;;20880114;28;20192;-41
2024/02/26 07:11:08;;;;;;;8.27;5.88;;;0.90;99.90;;;;;;20876175;28;20119;-43
2024/02/26 07:21:12;;;;;;;11.65;6.60;;;0.90;99.90;;;;;;20875516;28;20508;-42
2024/02/26 07:31:14;;;;;;;8.25;4.53;;;1.00;99.90;;;;;;20875802;28;20191;-42
2024/02/26 07:41:15;;;;;;;6.85;4.07;;;1.10;99.90;;;;;;20875980;28;20899;-42
2024/02/26 07:51:22;;;;;;;4.15;3.10;;;1.00;99.90;;;;;;20870413;28;20810;-43
2024/02/26 08:01:25;;;;;;;5.53;3.30;;;1.10;99.90;;;;;;20867361;28;20165;-42
2024/02/26 08:11:27;;;;;;;6.22;4.38;;;1.30;99.90;;;;;;20867375;28;20472;-41
2024/02/26 08:21:30;;;;;;;7.18;3.70;;;1.40;99.90;;;;;;20869710;28;20095;-43
2024/02/26 08:31:32;;;;;;;3.55;2.70;;;1.70;99.90;;;;;;20849755;28;20113;-42
2024/02/26 08:41:34;;;;;;;5.60;2.35;;;1.90;99.90;;;;;;20868262;28;22841;-42
2024/02/26 08:51:41;;;;;;;2.00;1.50;;;2.40;99.90;;;;;;20865925;28;20063;-43
2024/02/26 09:01:43;;;;;;;2.28;1.20;;;3.10;99.90;;;;;;20864307;28;21291;-45
2024/02/26 09:11:45;;;;;;;2.33;1.00;;;3.50;99.90;;;;;;20864639;28;20134;-41
2024/02/26 09:21:47;;;;;;;2.95;0.60;;;2.80;99.90;;;;;;20865534;28;20457;-43
2024/02/26 09:31:49;;;;;;;0.30;0.20;;;2.70;99.90;;;;;;20846987;28;21518;-43
2024/02/26 09:41:52;;;;;;;0.55;0.20;;;2.80;99.90;;;;;;20862775;28;20170;-44
2024/02/26 09:51:56;;;;;;;0.22;0.20;;;2.70;99.90;;;;;;20860068;28;20982;-42
2024/02/26 10:02:03;;;;;;;0.50;0.20;;;2.50;99.90;;;;;;20879228;28;20801;-45
2024/02/26 10:12:07;;;;;;;0.40;0.10;;;3.20;99.90;;;;;;20880464;28;20249;-43
2024/02/26 10:22:15;;;;;;;0.13;0.05;;;3.90;99.90;;;;;;20863313;28;20170;-44
2024/02/26 10:32:17;;;;;;;0.30;0.10;;;4.40;99.90;;;;;;20877536;28;20448;-42
2024/02/26 10:42:19;;;;;;;2.05;0.40;;;3.60;99.90;;;;;;20876330;28;20933;-43
2024/02/26 10:52:25;;;;;;;1.65;0.63;;;3.10;99.90;;;;;;20877299;28;20150;-42
2024/02/26 11:02:27;;;;;;;2.05;0.73;;;3.20;99.90;;;;;;20872570;28;20776;-41
2024/02/26 11:12:32;;;;;;;1.98;0.98;;;2.90;99.90;;;;;;20854647;28;20158;-43
2024/02/26 11:22:34;;;;;;;2.38;1.10;;;2.70;99.90;;;;;;20875409;28;20123;-42
2024/02/26 11:32:37;;;;;;;4.30;2.72;;;3.40;99.90;;;;;;20873928;28;20466;-43
2024/02/26 11:42:45;;;;;;;2.13;1.40;;;3.00;99.90;;;;;;20870272;28;20048;-45
2024/02/26 11:53:25;;;;;;;2.17;1.80;;;2.70;99.90;;;;;;20873587;28;20128;-43
2024/02/26 12:03:29;;;;;;;2.63;2.10;;;3.30;99.90;;;;;;20870638;28;20173;-48
2024/02/26 12:13:32;;;;;;;2.42;1.60;;;3.70;99.90;;;;;;20852696;28;20469;-48
2024/02/26 12:23:33;;;;;;;2.08;1.70;;;4.10;99.90;;;;;;20869786;28;20154;-42
2024/02/26 12:33:39;;;;;;;2.42;1.70;;;4.50;99.90;;;;;;20872737;28;20152;-45
2024/02/26 12:43:41;;;;;;;2.03;1.58;;;4.00;99.90;;;;;;20865053;28;20252;-43
2024/02/26 12:53:45;;;;;;;2.25;1.67;;;3.50;99.90;;;;;;20860684;28;20180;-43
2024/02/26 13:03:49;;;;;;;1.90;1.30;;;3.00;99.90;;;;;;20862779;28;20065;-41
2024/02/26 13:13:51;;;;;;;4.78;1.27;;;2.20;99.90;;;;;;20846336;28;20131;-42
2024/02/26 13:23:54;;;;;;;1.13;0.52;;;1.70;99.90;;;;;;20863979;28;20123;-43
2024/02/26 13:33:56;;;;;;;0.90;0.38;;;1.50;99.90;;;;;;20861229;28;20162;-42
2024/02/26 13:44:01;;;;;;;0.47;0.20;;;1.30;99.90;;;;;;20866205;28;20566;-43
2024/02/26 13:54:05;;;;;;;0.10;0.00;;;1.40;99.90;;;;;;20858542;28;20075;-43
2024/02/26 14:04:09;;;;;;;0.50;0.32;;;1.40;99.90;;;;;;20863971;28;20509;-45
2024/02/26 14:14:11;;;;;;;0.13;0.05;;;1.30;99.90;;;;;;20858181;28;20244;-44
2024/02/26 14:24:12;;;;;;;0.40;0.15;;;1.30;99.90;;;;;;20861550;28;20173;-42
2024/02/26 14:34:17;;;;;;;0.20;0.00;;;1.20;99.90;;;;;;20855930;28;20484;-44
2024/02/26 14:44:19;;;;;;;0.22;0.22;;;1.30;99.90;;;;;;20847444;28;20880;-44
2024/02/26 14:54:23;;;;;;;0.10;0.10;;;1.30;99.90;;;;;;20880153;28;20151;-42
2024/02/26 15:04:25;;;;;;;0.35;0.35;;;1.30;99.90;;;;;;20881058;28;21112;-41
2024/02/26 15:14:30;;;;;;;3.80;3.50;;;1.40;99.90;;;;;;20875776;28;20074;-42
2024/02/26 15:24:32;;;;;;;4.80;2.97;;;1.40;99.90;;;;;;20875630;28;20161;-42
2024/02/26 15:34:34;;;;;;;1.77;0.85;;;1.10;99.90;;;;;;20874345;28;21511;-42
2024/02/26 15:44:38;;;;;;;1.38;1.38;;;1.00;99.90;;;;;;20874435;28;20197;-41
2024/02/26 15:54:43;;;;;;;0.13;0.13;;;0.90;99.90;;;;;;20873163;28;20138;-42
2024/02/26 16:04:45;;;;;;;3.25;3.05;;;0.80;99.90;;;;;;20871824;28;20150;-41
2024/02/26 16:14:49;;;;;;;1.20;1.13;;;0.80;99.90;;;;;;20873997;28;20124;-43
2024/02/26 16:24:51;;;;;;;12.25;9.38;;;0.70;99.90;;;;;;20870597;28;20124;-42
2024/02/26 16:34:54;;;;;;;1.60;0.98;;;0.70;99.90;;;;;;20869464;28;20075;-41
2024/02/26 16:44:59;;;;;;;0.30;0.30;;;0.70;99.90;;;;;;20789194;28;21866;-41
2024/02/26 16:55:01;;;;;;;0.00;0.00;;;0.70;99.90;;;;;;20785331;28;20224;-42
2024/02/26 17:05:03;;;;;;;0.77;0.77;;;0.70;99.90;;;;;;20782513;28;20071;-42
2024/02/26 17:15:08;;;;;;;0.00;0.00;;;0.70;99.90;;;;;;20790055;28;20067;-42
2024/02/26 17:25:12;;;;;;;0.00;0.00;;;0.70;99.90;;;;;;20782099;28;20178;-40
2024/02/26 17:35:14;;;;;;;0.00;0.00;;;0.70;99.90;;;;;;20788196;28;20223;-41
2024/02/26 17:45:18;;;;;;;0.00;0.00;;;0.60;99.90;;;;;;20857211;28;20146;-42
2024/02/26 17:55:20;;;;;;;0.00;0.00;;;0.60;99.90;;;;;;20865975;28;20068;-41
2024/02/26 18:05:22;;;;;;;0.15;0.15;;;0.60;99.90;;;;;;20864898;28;20162;-43
2024/02/26 18:15:25;;;;;;;0.50;0.10;;;0.60;99.90;;;;;;20867182;28;20826;-41
2024/02/26 18:25:26;;;;;;;0.00;0.00;;;0.60;99.90;;;;;;20845530;28;20146;-43
2024/02/26 18:35:28;;;;;;;22.38;5.15;;;0.60;99.90;;;;;;20848248;28;20118;-42
2024/02/26 18:45:30;;;;;;;0.00;0.00;;;0.60;99.90;;;;;;20884818;28;20485;-41
2024/02/26 18:55:32;;;;;;;0.00;0.00;;;0.60;99.90;;;;;;20881276;28;20157;-42
2024/02/26 19:05:38;;;;;;;0.00;0.00;;;0.60;99.90;;;;;;20878071;28;20162;-44
2024/02/26 19:15:41;;;;;;;0.00;0.00;;;0.70;99.90;;;;;;20876430;28;20174;-44
2024/02/26 19:25:44;;;;;;;0.00;0.00;;;0.70;99.90;;;;;;20880352;28;20134;-44
2024/02/26 19:35:48;;;;;;;0.00;0.00;;;0.70;99.90;;;;;;20878878;28;21329;-43
2024/02/26 19:45:53;;;;;;;0.00;0.00;;;0.70;99.90;;;;;;20874926;28;20182;-45
2024/02/26 19:55:56;;;;;;;0.00;0.00;;;0.80;99.90;;;;;;20856703;28;20593;-44
2024/02/26 20:05:58;;;;;;;0.00;0.00;;;0.70;99.90;;;;;;20877117;28;20123;-46
2024/02/26 20:16:00;;;;;;;0.00;0.00;;;0.70;99.90;;;;;;20874559;28;20521;-46
2024/02/26 20:26:02;;;;;;;0.00;0.00;;;0.70;99.90;;;;;;20870314;28;20174;-47
2024/02/26 20:36:04;;;;;;;0.00;0.00;;;0.70;99.90;;;;;;20866474;28;20299;-50
2024/02/26 20:46:06;;;;;;;0.00;0.00;;;0.70;99.90;;;;;;20867625;28;20075;-46
2024/02/26 20:56:12;;;;;;;0.00;0.00;;;0.70;99.90;;;;;;20871184;28;20063;-46
2024/02/26 21:06:14;;;;;;;0.00;0.00;;;0.70;99.90;;;;;;20869402;28;20070;-45
2024/02/26 21:16:16;;;;;;;4.68;1.85;;;0.70;99.90;;;;;;20868229;28;20509;-45
2024/02/26 21:26:18;;;;;;;0.00;0.00;;;0.70;99.90;;;;;;20864330;28;20066;-46
2024/02/26 21:36:20;;;;;;;2.42;0.00;;;0.70;99.90;;;;;;20863525;28;20116;-48
2024/02/26 21:46:29;;;;;;;0.10;0.10;;;0.70;99.90;;;;;;20867504;28;20097;-46
2024/02/26 21:56:30;;;;;;;0.00;0.00;;;0.70;99.90;;;;;;20864549;28;20124;-49
2024/02/26 22:06:32;;;;;;;0.25;0.00;;;0.70;99.90;;;;;;20864408;28;20124;-48
2024/02/26 22:16:34;;;;;;;0.00;0.00;;;0.70;99.90;;;;;;20865760;28;20535;-50
2024/02/26 22:26:36;;;;;;;0.00;0.00;;;0.70;99.90;;;;;;20864269;28;20127;-48
2024/02/26 22:36:38;;;;;;;0.70;0.00;;;0.70;99.90;;;;;;20847277;28;20662;-44
2024/02/26 22:46:40;;;;;;;0.20;0.00;;;0.70;99.90;;;;;;20860096;28;20271;-48
2024/02/26 22:56:42;;;;;;;0.00;0.00;;;0.80;99.90;;;;;;20865200;28;20063;-52
2024/02/26 23:06:44;;;;;;;0.00;0.00;;;0.80;99.90;;;;;;20871641;28;21225;-52
2024/02/26 23:16:45;;;;;;;3.13;0.85;;;0.80;99.90;;;;;;20879541;28;20124;-53
2024/02/26 23:26:47;;;;;;;0.00;0.00;;;0.80;99.90;;;;;;20872443;28;20139;-54
2024/02/26 23:36:49;;;;;;;5.30;1.33;;;0.80;99.90;;;;;;20872557;28;20228;-50
2024/02/26 23:46:54;;;;;;;0.00;0.00;;;0.80;99.90;;;;;;20877045;28;20248;-44
2024/02/26 23:56:56;;;;;;;6.68;5.05;;;0.80;99.90;;;;;;20878915;28;20126;-45
